Time;durP1;ratioP1;P1;durP2;ratioP2;P2;SDS_P1;SDS_P2;PMS_P1;PMS_P2;Temp;Humidity;BMP_temperature;BMP_pressure;BME280_temperature;BME280_humidity;BME280_pressure;Samples;Min_cycle;Max_cycle;Signal;HPM_P1;HPM_P2
2021/06/28 00:01:22;;;;;;;2.92;2.72;;;24.70;65.80;;;;;;4948905;28;90788;-21
2021/06/28 00:03:48;;;;;;;2.90;2.67;;;24.70;65.90;;;;;;4947603;28;89107;-30
2021/06/28 00:06:14;;;;;;;3.30;3.00;;;24.70;65.80;;;;;;4948732;28;88099;-27
2021/06/28 00:08:41;;;;;;;3.00;2.70;;;24.80;65.80;;;;;;4949686;28;88670;-25
2021/06/28 00:11:08;;;;;;;2.72;2.53;;;24.70;65.80;;;;;;4949097;28;88443;-25
2021/06/28 00:13:36;;;;;;;3.13;2.83;;;24.70;65.70;;;;;;4950890;28;87950;-22
2021/06/28 00:16:02;;;;;;;2.65;2.45;;;24.70;65.80;;;;;;4951126;28;87983;-25
2021/06/28 00:18:28;;;;;;;3.45;3.15;;;24.70;65.80;;;;;;4952027;28;90916;-31
2021/06/28 00:20:54;;;;;;;3.30;2.63;;;24.70;65.70;;;;;;4953956;28;88278;-24
2021/06/28 00:23:20;;;;;;;3.63;2.95;;;24.70;65.80;;;;;;4950740;28;87284;-26
2021/06/28 00:25:45;;;;;;;3.53;2.92;;;24.60;65.30;;;;;;4950701;28;90057;-29
2021/06/28 00:28:12;;;;;;;4.32;2.80;;;24.70;65.20;;;;;;4951722;28;89048;-28
2021/06/28 00:30:41;;;;;;;3.75;3.00;;;24.70;65.20;;;;;;4951463;28;89862;-25
2021/06/28 00:33:19;;;;;;;3.33;2.78;;;24.70;65.20;;;;;;4951687;28;87170;-22
2021/06/28 00:35:45;;;;;;;3.17;2.88;;;24.70;65.30;;;;;;4953020;28;87893;-23
2021/06/28 00:38:11;;;;;;;2.97;2.67;;;24.70;65.20;;;;;;4950605;28;90568;-24
2021/06/28 00:40:38;;;;;;;3.17;2.58;;;24.60;65.20;;;;;;4952909;28;87448;-33
2021/06/28 00:43:05;;;;;;;2.88;2.67;;;24.70;65.70;;;;;;4953049;28;87849;-22
2021/06/28 00:45:33;;;;;;;2.92;2.63;;;24.70;66.30;;;;;;4953367;28;87693;-22
2021/06/28 00:48:15;;;;;;;3.40;2.63;;;24.70;65.70;;;;;;4949906;28;91470;-23
2021/06/28 00:50:52;;;;;;;3.13;2.83;;;24.60;65.80;;;;;;4950711;28;89100;-22
2021/06/28 00:53:21;;;;;;;3.22;2.60;;;24.60;65.70;;;;;;4952488;28;89223;-26
2021/06/28 00:55:47;;;;;;;2.78;2.55;;;24.60;65.70;;;;;;4953019;28;88332;-28
2021/06/28 00:58:13;;;;;;;3.03;2.47;;;24.60;65.70;;;;;;4952516;28;88113;-25
2021/06/28 01:00:39;;;;;;;2.80;2.58;;;24.60;65.70;;;;;;4952571;28;87837;-22
2021/06/28 01:03:06;;;;;;;2.95;2.65;;;24.60;65.70;;;;;;4952280;28;87957;-22
2021/06/28 01:05:33;;;;;;;2.95;2.60;;;24.60;65.80;;;;;;4952486;28;87432;-22
2021/06/28 01:08:00;;;;;;;2.70;2.47;;;24.60;65.70;;;;;;4952765;28;88100;-22
2021/06/28 01:10:27;;;;;;;2.63;2.42;;;24.60;66.20;;;;;;4953373;28;87232;-31
2021/06/28 01:12:53;;;;;;;3.70;2.88;;;24.70;65.80;;;;;;4950282;28;87367;-22
2021/06/28 01:15:20;;;;;;;3.15;2.90;;;24.70;65.80;;;;;;4951584;28;87990;-22
2021/06/28 01:17:46;;;;;;;3.08;2.78;;;24.60;66.30;;;;;;4952167;28;88573;-22
2021/06/28 01:20:15;;;;;;;2.70;2.50;;;24.60;65.70;;;;;;4950370;28;89907;-23
2021/06/28 01:22:44;;;;;;;2.95;2.75;;;24.60;65.30;;;;;;4952502;28;88050;-31
2021/06/28 01:25:14;;;;;;;2.60;2.40;;;24.60;65.20;;;;;;4951632;28;88022;-25
2021/06/28 01:27:41;;;;;;;2.53;2.33;;;24.60;65.20;;;;;;4950033;28;89541;-22
2021/06/28 01:30:10;;;;;;;3.88;2.70;;;24.60;65.20;;;;;;4952408;28;88012;-22
2021/06/28 01:32:36;;;;;;;3.25;2.80;;;24.60;65.40;;;;;;4951360;28;87362;-22
2021/06/28 01:35:04;;;;;;;2.58;2.38;;;24.60;65.80;;;;;;4952459;28;88743;-29
2021/06/28 01:37:29;;;;;;;2.72;2.53;;;24.60;65.70;;;;;;4952333;28;87664;-25
2021/06/28 01:39:59;;;;;;;2.72;2.45;;;24.60;65.70;;;;;;4952483;28;88189;-22
2021/06/28 01:42:25;;;;;;;2.72;2.45;;;24.60;65.30;;;;;;4952370;28;88393;-23
2021/06/28 01:44:52;;;;;;;2.63;2.42;;;24.50;65.20;;;;;;4952165;28;87605;-21
2021/06/28 01:47:18;;;;;;;2.55;2.35;;;24.60;65.30;;;;;;4950313;28;94130;-23
2021/06/28 01:49:45;;;;;;;2.83;2.55;;;24.60;65.10;;;;;;4951742;28;87870;-25
2021/06/28 01:52:10;;;;;;;2.83;2.63;;;24.60;65.20;;;;;;4951902;28;88233;-22
2021/06/28 01:54:37;;;;;;;2.72;2.38;;;24.70;64.90;;;;;;4951637;28;87558;-29
2021/06/28 01:57:04;;;;;;;2.45;2.25;;;24.60;65.40;;;;;;4951061;28;88029;-21
2021/06/28 01:59:33;;;;;;;3.10;2.50;;;24.60;65.70;;;;;;4949907;28;91175;-21
2021/06/28 02:02:00;;;;;;;2.80;2.50;;;24.60;65.70;;;;;;4951702;28;88148;-23
2021/06/28 02:04:29;;;;;;;2.85;2.50;;;24.60;65.80;;;;;;4951074;28;87169;-25
2021/06/28 02:06:56;;;;;;;2.70;2.42;;;24.50;65.70;;;;;;4950921;28;88237;-26
2021/06/28 02:09:23;;;;;;;3.15;2.85;;;24.50;65.80;;;;;;4949227;28;90057;-22
2021/06/28 02:11:50;;;;;;;2.40;2.20;;;24.50;65.70;;;;;;4949927;28;87736;-22
2021/06/28 02:14:16;;;;;;;3.80;2.50;;;24.50;65.70;;;;;;4952008;28;87752;-30
2021/06/28 02:16:43;;;;;;;2.80;2.60;;;24.60;65.00;;;;;;4951388;28;88970;-22
2021/06/28 02:19:09;;;;;;;2.97;2.53;;;;;;;;;;4951126;28;88628;-27
2021/06/28 02:21:35;;;;;;;2.40;2.20;;;24.60;65.00;;;;;;4951488;28;87567;-29
2021/06/28 02:24:01;;;;;;;2.83;2.63;;;24.50;66.00;;;;;;4951560;28;87375;-24
2021/06/28 02:26:26;;;;;;;2.78;2.50;;;24.50;65.70;;;;;;4949698;28;89171;-32
2021/06/28 02:28:52;;;;;;;2.85;2.38;;;24.50;65.60;;;;;;4952533;28;88354;-23
2021/06/28 02:31:22;;;;;;;2.67;2.25;;;24.50;65.70;;;;;;4952203;28;88746;-21
2021/06/28 02:33:50;;;;;;;2.63;2.40;;;24.50;65.70;;;;;;4951870;28;88405;-23
2021/06/28 02:36:17;;;;;;;2.38;2.17;;;24.50;66.40;;;;;;4956860;28;88183;-21
2021/06/28 02:38:44;;;;;;;2.50;2.30;;;24.50;65.80;;;;;;4948611;28;87845;-23
2021/06/28 02:41:10;;;;;;;2.42;2.22;;;24.50;65.80;;;;;;4953926;28;87753;-26
2021/06/28 02:43:36;;;;;;;2.70;2.50;;;24.50;65.80;;;;;;4951068;28;89467;-28
2021/06/28 02:46:01;;;;;;;2.30;2.10;;;24.50;65.80;;;;;;4950252;28;90272;-24
2021/06/28 02:48:27;;;;;;;2.58;2.38;;;24.50;65.80;;;;;;4951732;28;87276;-24
2021/06/28 02:50:53;;;;;;;2.85;2.55;;;24.50;65.80;;;;;;4951553;28;87086;-23
2021/06/28 02:53:20;;;;;;;2.80;2.38;;;24.50;65.80;;;;;;4949736;28;89852;-22
2021/06/28 02:55:47;;;;;;;2.42;2.22;;;24.50;65.80;;;;;;4949470;28;89361;-22
2021/06/28 02:58:13;;;;;;;2.65;2.45;;;24.50;65.80;;;;;;4950075;28;87318;-33
2021/06/28 03:00:38;;;;;;;2.40;2.20;;;24.50;65.10;;;;;;4950877;28;88323;-25
2021/06/28 03:03:04;;;;;;;2.30;2.10;;;24.50;65.60;;;;;;4948556;28;88029;-27
2021/06/28 03:05:30;;;;;;;2.47;2.25;;;24.50;65.70;;;;;;4950289;28;89990;-27
2021/06/28 03:07:56;;;;;;;2.60;2.40;;;24.50;65.10;;;;;;4950507;28;88026;-26
2021/06/28 03:10:21;;;;;;;3.15;2.38;;;24.50;65.20;;;;;;4951582;28;88174;-25
2021/06/28 03:12:47;;;;;;;3.85;2.75;;;24.50;65.30;;;;;;4949540;28;89144;-22
2021/06/28 03:15:16;;;;;;;2.78;2.58;;;24.50;65.70;;;;;;4951169;28;88064;-22
2021/06/28 03:17:42;;;;;;;2.40;2.20;;;24.50;65.80;;;;;;4950617;28;87540;-33
2021/06/28 03:20:11;;;;;;;2.60;2.40;;;24.40;65.70;;;;;;4950929;28;88060;-22
2021/06/28 03:22:39;;;;;;;2.95;2.75;;;24.40;65.70;;;;;;4948953;28;87828;-22
2021/06/28 03:25:06;;;;;;;2.50;2.22;;;24.50;65.80;;;;;;4950242;28;88972;-26
2021/06/28 03:27:32;;;;;;;2.70;2.50;;;24.50;65.80;;;;;;4950449;28;88061;-32
2021/06/28 03:29:57;;;;;;;2.78;2.58;;;24.40;65.70;;;;;;4949647;28;88279;-21
2021/06/28 03:32:23;;;;;;;2.50;2.30;;;24.40;65.70;;;;;;4948930;28;88200;-21
2021/06/28 03:34:48;;;;;;;2.75;2.38;;;24.40;65.70;;;;;;4950389;28;88692;-21
2021/06/28 03:37:14;;;;;;;2.65;2.45;;;24.50;65.70;;;;;;4951198;28;86677;-24
2021/06/28 03:39:40;;;;;;;2.70;2.25;;;24.40;65.70;;;;;;4949369;28;88076;-34
2021/06/28 03:42:06;;;;;;;2.40;2.20;;;24.40;65.20;;;;;;4950365;28;88155;-25
2021/06/28 03:44:31;;;;;;;2.20;2.10;;;24.40;65.70;;;;;;4950242;28;90146;-26
2021/06/28 03:46:57;;;;;;;2.40;2.20;;;24.40;65.20;;;;;;4949060;28;89671;-29
2021/06/28 03:49:23;;;;;;;1.95;1.85;;;24.50;64.90;;;;;;4950449;28;87687;-22
2021/06/28 03:51:48;;;;;;;2.38;2.17;;;24.50;64.80;;;;;;4952259;28;88199;-25
2021/06/28 03:54:14;;;;;;;2.40;2.20;;;24.40;65.00;;;;;;4953267;28;88032;-26
2021/06/28 03:56:39;;;;;;;2.20;2.00;;;24.40;65.40;;;;;;4953758;28;87945;-26
2021/06/28 03:59:05;;;;;;;2.70;2.50;;;24.50;65.20;;;;;;4952163;28;88347;-22
2021/06/28 04:01:31;;;;;;;2.22;2.10;;;24.40;65.50;;;;;;4951524;28;88590;-23
2021/06/28 04:03:56;;;;;;;2.47;2.28;;;24.40;65.60;;;;;;4953592;28;88158;-29
2021/06/28 04:06:23;;;;;;;2.33;2.15;;;24.40;65.60;;;;;;4952225;28;88817;-30
2021/06/28 04:08:49;;;;;;;2.25;2.05;;;24.40;65.60;;;;;;4953325;28;88777;-23
2021/06/28 04:11:17;;;;;;;2.80;2.50;;;24.40;65.60;;;;;;4954323;28;87096;-22
2021/06/28 04:13:43;;;;;;;3.28;2.30;;;24.40;65.60;;;;;;4951697;28;89107;-22
2021/06/28 04:16:09;;;;;;;2.50;2.30;;;24.40;65.60;;;;;;4935617;28;88062;-31
2021/06/28 04:18:35;;;;;;;2.60;2.40;;;24.40;65.60;;;;;;4953213;28;88604;-22
2021/06/28 04:21:01;;;;;;;2.50;2.30;;;24.40;65.50;;;;;;4952570;28;87512;-24
2021/06/28 04:23:26;;;;;;;2.15;1.95;;;24.30;65.10;;;;;;4952017;28;87681;-25
2021/06/28 04:25:52;;;;;;;2.55;2.35;;;24.40;65.60;;;;;;4952261;28;87880;-27
2021/06/28 04:28:17;;;;;;;2.65;2.30;;;24.40;65.60;;;;;;4953796;28;88385;-26
2021/06/28 04:30:43;;;;;;;2.67;2.25;;;24.40;65.60;;;;;;4953878;28;87568;-27
2021/06/28 04:33:09;;;;;;;2.92;2.60;;;24.40;65.60;;;;;;4952744;28;88718;-25
2021/06/28 04:35:34;;;;;;;2.63;2.42;;;24.40;65.60;;;;;;4951480;28;90177;-30
2021/06/28 04:38:00;;;;;;;2.40;2.20;;;24.30;65.60;;;;;;4951222;28;87783;-22
2021/06/28 04:40:28;;;;;;;2.20;2.00;;;24.40;65.60;;;;;;4951593;28;88784;-26
2021/06/28 04:42:54;;;;;;;2.30;2.10;;;24.40;65.60;;;;;;4953340;28;88082;-22
2021/06/28 04:45:21;;;;;;;2.25;2.05;;;24.40;65.60;;;;;;4952851;28;88235;-23
2021/06/28 04:47:47;;;;;;;2.40;2.20;;;24.40;65.50;;;;;;4952471;28;88134;-26
2021/06/28 04:50:14;;;;;;;2.60;2.40;;;24.40;65.50;;;;;;4952725;28;87380;-32
2021/06/28 04:52:40;;;;;;;2.47;2.28;;;24.40;65.40;;;;;;4951695;28;88087;-24
2021/06/28 04:55:08;;;;;;;2.20;2.05;;;24.50;65.30;;;;;;4951286;28;87890;-28
2021/06/28 04:57:35;;;;;;;2.13;1.92;;;24.50;65.30;;;;;;4951996;28;89087;-30
2021/06/28 05:00:00;;;;;;;2.17;1.98;;;24.50;65.20;;;;;;4953100;28;88305;-25
2021/06/28 05:02:26;;;;;;;1.88;1.73;;;24.50;65.10;;;;;;4951623;28;87865;-24
2021/06/28 05:04:52;;;;;;;2.38;2.05;;;24.50;65.10;;;;;;4951493;28;88433;-24
2021/06/28 05:07:18;;;;;;;2.47;2.30;;;24.60;64.90;;;;;;4951196;28;87654;-24
2021/06/28 05:09:45;;;;;;;2.72;2.30;;;24.60;64.90;;;;;;4951997;28;87172;-26
2021/06/28 05:12:13;;;;;;;4.18;2.20;;;24.60;64.90;;;;;;4952084;28;88262;-27
2021/06/28 05:14:39;;;;;;;3.72;2.63;;;24.60;64.40;;;;;;4952718;28;87457;-27
2021/06/28 05:17:06;;;;;;;2.85;2.30;;;24.60;64.80;;;;;;4952625;28;87457;-30
2021/06/28 05:19:32;;;;;;;3.60;2.85;;;24.60;64.90;;;;;;4953328;28;88274;-25
2021/06/28 05:21:58;;;;;;;3.30;2.47;;;24.60;64.90;;;;;;4951941;28;89218;-24
2021/06/28 05:24:23;;;;;;;3.03;2.50;;;24.60;64.90;;;;;;4952546;28;89874;-28
2021/06/28 05:26:49;;;;;;;3.70;3.30;;;24.60;65.10;;;;;;4952879;28;87178;-26
2021/06/28 05:29:15;;;;;;;5.13;3.17;;;24.50;65.10;;;;;;4950957;28;88224;-23
2021/06/28 05:31:41;;;;;;;4.80;3.20;;;24.50;65.20;;;;;;4952441;28;88163;-26
2021/06/28 05:34:06;;;;;;;4.13;2.72;;;24.50;65.30;;;;;;4952037;28;88111;-25
2021/06/28 05:36:34;;;;;;;4.65;3.30;;;24.50;65.30;;;;;;4951800;28;88108;-25
2021/06/28 05:39:00;;;;;;;4.90;3.78;;;24.50;65.40;;;;;;4950518;28;88835;-24
2021/06/28 05:41:26;;;;;;;5.97;4.18;;;24.50;65.70;;;;;;4952130;28;87614;-27
2021/06/28 05:43:52;;;;;;;5.22;4.35;;;24.50;65.90;;;;;;4952414;28;89066;-25
2021/06/28 05:46:17;;;;;;;6.35;4.30;;;24.50;66.10;;;;;;4951694;28;88439;-28
2021/06/28 05:48:43;;;;;;;5.03;4.53;;;24.50;66.30;;;;;;4951509;28;88149;-24
2021/06/28 05:51:09;;;;;;;7.63;4.90;;;24.50;66.50;;;;;;4951601;28;88208;-24
2021/06/28 05:53:35;;;;;;;6.57;4.57;;;24.50;66.70;;;;;;4950753;28;87960;-24
2021/06/28 05:56:02;;;;;;;5.15;4.20;;;24.50;66.70;;;;;;4950676;28;87798;-30
2021/06/28 05:58:28;;;;;;;5.60;4.40;;;24.50;66.80;;;;;;4952197;28;88126;-30
2021/06/28 06:00:56;;;;;;;11.35;4.72;;;24.50;66.90;;;;;;4952038;28;88263;-28
2021/06/28 06:03:21;;;;;;;8.57;4.95;;;24.50;67.00;;;;;;4952328;28;87764;-25
2021/06/28 06:05:48;;;;;;;6.88;4.95;;;24.40;67.10;;;;;;4952313;28;87201;-26
2021/06/28 06:08:14;;;;;;;5.28;4.78;;;24.40;67.30;;;;;;4952378;28;87659;-24
2021/06/28 06:10:39;;;;;;;9.60;5.25;;;24.40;67.40;;;;;;4951632;28;89081;-24
2021/06/28 06:13:05;;;;;;;32.10;10.77;;;24.40;67.40;;;;;;4951734;28;88683;-30
2021/06/28 06:15:31;;;;;;;60.00;18.50;;;24.40;67.60;;;;;;4951577;28;87163;-26
2021/06/28 06:17:56;;;;;;;46.15;15.55;;;24.40;67.70;;;;;;4951048;28;87126;-24
2021/06/28 06:20:22;;;;;;;49.08;15.65;;;24.40;67.60;;;;;;4951054;28;88087;-27
2021/06/28 06:22:48;;;;;;;31.48;12.95;;;24.40;67.90;;;;;;4951232;28;87887;-25
2021/06/28 06:25:14;;;;;;;23.50;11.30;;;24.40;67.90;;;;;;4951674;28;87050;-24
2021/06/28 06:27:40;;;;;;;25.80;10.88;;;24.40;68.40;;;;;;4951406;28;87960;-24
2021/06/28 06:30:08;;;;;;;24.20;10.27;;;24.40;68.40;;;;;;4951243;28;87681;-30
2021/06/28 06:32:33;;;;;;;21.38;9.18;;;24.50;68.60;;;;;;4951004;28;89395;-24
2021/06/28 06:34:59;;;;;;;19.42;9.10;;;24.50;68.70;;;;;;4951125;28;88677;-25
2021/06/28 06:37:25;;;;;;;16.80;8.60;;;24.40;69.00;;;;;;4951733;28;87644;-24
2021/06/28 06:39:51;;;;;;;15.52;8.15;;;24.50;69.10;;;;;;4951860;28;88018;-23
2021/06/28 06:42:18;;;;;;;15.35;7.82;;;24.50;69.50;;;;;;4951423;28;88269;-24
2021/06/28 06:44:44;;;;;;;14.63;7.78;;;24.50;68.80;;;;;;4951005;28;87419;-24
2021/06/28 06:47:10;;;;;;;16.30;7.82;;;24.50;69.40;;;;;;4950804;28;87751;-24
2021/06/28 06:49:35;;;;;;;14.88;8.73;;;24.50;69.30;;;;;;4951316;28;88067;-29
2021/06/28 06:52:01;;;;;;;16.20;8.65;;;24.50;69.20;;;;;;4951615;28;87451;-30
2021/06/28 06:54:27;;;;;;;15.48;8.70;;;24.50;70.00;;;;;;4951502;28;87288;-24
2021/06/28 06:56:53;;;;;;;14.90;8.23;;;24.60;70.00;;;;;;4951570;28;87374;-27
2021/06/28 06:59:18;;;;;;;12.68;7.50;;;24.60;70.00;;;;;;4950462;28;88684;-28
2021/06/28 07:01:44;;;;;;;10.25;7.53;;;24.60;70.20;;;;;;4951538;28;88339;-32
2021/06/28 07:04:09;;;;;;;13.02;7.50;;;24.50;70.10;;;;;;4951329;28;87534;-32
2021/06/28 07:06:35;;;;;;;13.77;9.20;;;24.60;69.70;;;;;;4951796;28;87525;-24
2021/06/28 07:09:01;;;;;;;12.45;7.75;;;24.60;70.10;;;;;;4950691;28;90090;-24
2021/06/28 07:11:26;;;;;;;12.63;7.95;;;24.60;70.00;;;;;;4950453;28;89416;-27
2021/06/28 07:13:53;;;;;;;11.63;7.85;;;24.60;69.90;;;;;;4950993;28;87401;-30
2021/06/28 07:16:21;;;;;;;14.98;7.57;;;24.60;70.70;;;;;;4948563;28;87055;-31
2021/06/28 07:18:47;;;;;;;12.00;8.30;;;24.60;70.50;;;;;;4950134;28;88156;-27
2021/06/28 07:21:13;;;;;;;16.38;9.07;;;24.60;71.00;;;;;;4950842;28;88084;-25
2021/06/28 07:23:39;;;;;;;10.98;7.70;;;24.60;71.00;;;;;;4949742;28;88932;-33
2021/06/28 07:26:06;;;;;;;10.45;6.95;;;24.70;70.50;;;;;;4953839;28;88385;-24
2021/06/28 07:28:33;;;;;;;9.90;7.25;;;24.70;70.10;;;;;;4953816;28;88300;-25
2021/06/28 07:31:00;;;;;;;10.20;8.15;;;24.80;69.80;;;;;;4953642;28;87847;-33
2021/06/28 07:33:28;;;;;;;9.75;6.97;;;24.80;70.10;;;;;;4926061;28;91228;-24
2021/06/28 07:35:54;;;;;;;7.15;6.45;;;24.80;70.00;;;;;;4954487;28;87397;-29
2021/06/28 07:38:21;;;;;;;10.07;6.93;;;24.80;69.60;;;;;;4953372;28;88129;-25
2021/06/28 07:40:47;;;;;;;8.40;7.50;;;24.90;69.40;;;;;;4954232;28;90296;-25
2021/06/28 07:43:13;;;;;;;12.48;6.85;;;24.90;69.70;;;;;;4953551;28;87050;-26
2021/06/28 07:45:38;;;;;;;12.57;7.53;;;24.90;69.80;;;;;;4949727;28;87972;-24
2021/06/28 07:48:04;;;;;;;13.43;7.43;;;24.80;70.50;;;;;;4951453;28;88953;-25
2021/06/28 07:50:30;;;;;;;13.77;8.23;;;24.80;70.60;;;;;;4952030;28;87609;-27
2021/06/28 07:52:56;;;;;;;14.68;7.53;;;24.80;70.90;;;;;;4952576;28;87575;-24
2021/06/28 07:55:22;;;;;;;10.98;7.80;;;24.70;71.40;;;;;;4953014;28;88302;-24
2021/06/28 07:57:48;;;;;;;10.48;7.15;;;24.70;71.70;;;;;;4953348;28;88217;-25
2021/06/28 08:00:16;;;;;;;10.38;7.63;;;24.70;71.30;;;;;;4951983;28;87940;-24
2021/06/28 08:02:43;;;;;;;8.90;7.65;;;24.70;71.50;;;;;;4952497;28;87815;-24
2021/06/28 08:05:10;;;;;;;9.70;7.80;;;24.60;71.50;;;;;;4952512;28;87422;-31
2021/06/28 08:07:36;;;;;;;9.52;7.32;;;24.60;71.80;;;;;;4952235;28;88103;-24
2021/06/28 08:10:07;;;;;;;10.80;7.45;;;24.60;72.10;;;;;;4951976;28;88944;-24
2021/06/28 08:12:33;;;;;;;11.77;6.93;;;24.60;71.90;;;;;;4951227;28;89483;-24
2021/06/28 08:14:59;;;;;;;10.88;7.97;;;24.60;71.50;;;;;;4950918;28;88543;-29
2021/06/28 08:17:25;;;;;;;9.75;7.47;;;24.60;71.80;;;;;;4952191;28;87986;-26
2021/06/28 08:19:50;;;;;;;11.75;8.07;;;24.60;71.90;;;;;;4952682;28;87993;-31
2021/06/28 08:22:16;;;;;;;11.70;8.32;;;24.60;72.10;;;;;;4952617;28;87622;-24
2021/06/28 08:24:43;;;;;;;8.88;7.18;;;24.50;72.50;;;;;;4952777;28;88031;-24
2021/06/28 08:27:09;;;;;;;11.18;7.22;;;24.50;72.30;;;;;;4923861;28;87651;-28
2021/06/28 08:29:35;;;;;;;11.77;7.90;;;24.50;72.30;;;;;;4776576;28;3120729;-25
2021/06/28 08:32:01;;;;;;;8.73;7.00;;;24.50;72.70;;;;;;4931701;28;88478;-31
2021/06/28 08:34:27;;;;;;;9.18;7.63;;;24.50;72.70;;;;;;4933508;28;87562;-29
2021/06/28 08:36:54;;;;;;;12.00;8.77;;;24.50;72.90;;;;;;4931615;28;89385;-29
2021/06/28 08:39:20;;;;;;;11.43;8.50;;;24.50;72.90;;;;;;4932390;28;88906;-31
2021/06/28 08:41:57;;;;;;;9.10;7.78;;;24.50;72.80;;;;;;4931234;28;88983;-24
2021/06/28 08:44:23;;;;;;;12.45;7.82;;;24.50;72.80;;;;;;4931295;28;88310;-26
2021/06/28 08:46:49;;;;;;;10.85;7.40;;;24.50;73.00;;;;;;4930492;28;87753;-31
2021/06/28 08:49:15;;;;;;;10.77;7.53;;;24.50;73.60;;;;;;4932839;28;90471;-24
2021/06/28 08:51:44;;;;;;;10.70;7.32;;;24.50;73.30;;;;;;4932806;28;87462;-27
2021/06/28 08:54:11;;;;;;;10.07;7.35;;;24.50;73.20;;;;;;4933456;28;87143;-27
2021/06/28 08:56:39;;;;;;;9.43;7.47;;;24.50;73.60;;;;;;4933074;28;88715;-29
2021/06/28 08:59:05;;;;;;;9.82;7.25;;;24.50;73.90;;;;;;4932352;28;88184;-24
2021/06/28 09:01:35;;;;;;;9.18;7.43;;;24.50;74.00;;;;;;4931987;28;89228;-26
2021/06/28 09:04:01;;;;;;;11.63;7.03;;;24.50;74.10;;;;;;4932088;28;87602;-26
2021/06/28 09:06:28;;;;;;;12.23;7.70;;;24.50;74.10;;;;;;4931161;28;88297;-28
2021/06/28 09:09:07;;;;;;;8.68;7.05;;;24.50;74.10;;;;;;4930084;28;89269;-24
2021/06/28 09:11:42;;;;;;;10.77;7.07;;;24.50;74.70;;;;;;4932183;28;87751;-28
2021/06/28 09:14:10;;;;;;;8.88;7.45;;;24.50;74.10;;;;;;4932686;28;87438;-28
2021/06/28 09:16:37;;;;;;;18.63;6.78;;;24.50;73.70;;;;;;4931722;28;88856;-26
2021/06/28 09:19:18;;;;;;;14.38;7.57;;;24.50;73.80;;;;;;4933016;28;87962;-25
2021/06/28 09:21:50;;;;;;;15.45;7.20;;;24.50;73.70;;;;;;4932480;28;88221;-23
2021/06/28 09:24:36;;;;;;;14.40;6.75;;;24.50;73.60;;;;;;4932324;28;87015;-26
2021/06/28 09:27:11;;;;;;;11.20;7.00;;;24.50;73.40;;;;;;4919820;28;88983;-25
2021/06/28 09:29:59;;;;;;;12.40;6.93;;;24.50;73.00;;;;;;4932826;28;88174;-25
2021/06/28 09:32:26;;;;;;;10.98;5.70;;;24.50;72.70;;;;;;4933139;28;88373;-24
2021/06/28 09:34:59;;;;;;;8.65;5.13;;;24.60;72.60;;;;;;4932911;28;88188;-27
2021/06/28 09:37:27;;;;;;;8.55;5.93;;;24.60;72.60;;;;;;4931818;28;89992;-24
2021/06/28 09:39:58;;;;;;;11.80;6.68;;;24.60;73.20;;;;;;4932953;28;87823;-29
2021/06/28 09:42:28;;;;;;;10.90;6.47;;;24.60;72.60;;;;;;4932457;28;87738;-31
2021/06/28 09:45:00;;;;;;;8.38;5.47;;;24.60;72.10;;;;;;4932747;28;86967;-24
2021/06/28 09:47:30;;;;;;;8.27;6.15;;;24.60;72.10;;;;;;4950924;22;88190;-18
2021/06/28 09:50:08;;;;;;;10.05;5.80;;;24.60;72.20;;;;;;4912799;28;88953;-31
2021/06/28 09:52:46;;;;;;;8.63;5.47;;;24.70;71.90;;;;;;4910526;28;89087;-15
2021/06/28 09:55:21;;;;;;;8.00;5.40;;;24.60;71.80;;;;;;4912861;28;88213;-18
2021/06/28 09:58:11;;;;;;;7.63;5.05;;;21.80;69.80;;;;;;4911988;28;87720;-23
2021/06/28 10:00:37;;;;;;;9.32;5.05;;;;;;;;;;4913044;28;88059;-29
2021/06/28 10:03:04;;;;;;;6.10;5.03;;;24.60;71.60;;;;;;4911527;28;88364;-31
2021/06/28 10:05:36;;;;;;;7.75;5.22;;;;;;;;;;4911864;28;87580;-25
2021/06/28 10:08:02;;;;;;;8.68;5.40;;;24.60;71.80;;;;;;4912179;28;88178;-22
2021/06/28 10:10:29;;;;;;;7.90;4.93;;;24.60;72.60;;;;;;4911900;28;88652;-17
2021/06/28 10:13:02;;;;;;;8.73;4.75;;;24.60;72.60;;;;;;4912588;28;88078;-15
2021/06/28 10:15:34;;;;;;;7.65;4.95;;;24.60;72.40;;;;;;4912806;28;87853;-22
2021/06/28 10:18:00;;;;;;;9.00;5.10;;;24.60;72.30;;;;;;4912467;28;89089;-17
2021/06/28 10:20:29;;;;;;;8.88;4.90;;;24.60;72.80;;;;;;4910839;28;91752;-21
2021/06/28 10:22:55;;;;;;;9.00;4.97;;;24.60;72.20;;;;;;4913395;28;87485;-21
2021/06/28 10:25:25;;;;;;;9.70;5.05;;;24.60;71.80;;;;;;4923993;28;87170;-18
2021/06/28 10:27:52;;;;;;;8.98;5.03;;;;;;;;;;4932063;28;88343;-17
2021/06/28 10:30:21;;;;;;;9.85;5.70;;;20.80;69.00;;;;;;4922137;28;89500;-22
2021/06/28 10:32:51;;;;;;;12.82;6.85;;;24.80;71.70;;;;;;4913073;28;87199;-18
2021/06/28 10:35:24;;;;;;;16.38;7.68;;;24.70;72.20;;;;;;4912461;28;87263;-34
2021/06/28 10:37:51;;;;;;;18.77;8.47;;;24.80;72.60;;;;;;4911872;28;88150;-15
2021/06/28 10:40:21;;;;;;;24.98;9.43;;;24.70;73.20;;;;;;4917595;28;88032;-23
2021/06/28 10:42:57;;;;;;;20.83;9.35;;;24.60;74.30;;;;;;4931152;28;88110;-17
2021/06/28 10:45:44;;;;;;;22.60;9.68;;;24.60;74.70;;;;;;4913688;28;87158;-31
2021/06/28 10:48:18;;;;;;;21.23;9.88;;;24.60;75.40;;;;;;4918082;28;89688;-18
2021/06/28 10:50:54;;;;;;;18.42;9.63;;;24.60;76.10;;;;;;4923609;28;87963;-36
2021/06/28 10:53:40;;;;;;;20.75;9.95;;;24.60;76.50;;;;;;4910548;28;87243;-18
2021/06/28 10:56:34;;;;;;;17.60;8.52;;;24.60;75.10;;;;;;4910833;28;89613;-18
2021/06/28 10:59:05;;;;;;;18.50;8.48;;;24.60;75.00;;;;;;4910447;28;88125;-29
2021/06/28 11:01:38;;;;;;;17.58;8.35;;;24.60;75.50;;;;;;4911023;28;87293;-36
2021/06/28 11:04:14;;;;;;;16.40;8.95;;;24.50;75.50;;;;;;4911010;28;87799;-32
2021/06/28 11:06:51;;;;;;;13.82;7.40;;;24.50;76.00;;;;;;4917334;28;88581;-35
2021/06/28 11:09:17;;;;;;;11.13;6.88;;;24.50;76.40;;;;;;4930297;28;90309;-24
2021/06/28 11:11:42;;;;;;;13.45;7.00;;;24.50;76.80;;;;;;4918411;28;89576;-24
2021/06/28 11:14:08;;;;;;;10.75;6.20;;;24.60;76.40;;;;;;4911659;28;88803;-29
2021/06/28 11:16:34;;;;;;;12.00;7.18;;;24.60;76.80;;;;;;4913110;28;87091;-15
2021/06/28 11:19:01;;;;;;;11.68;6.85;;;24.60;77.60;;;;;;4928957;28;88100;-25
2021/06/28 11:21:40;;;;;;;11.43;6.65;;;24.60;78.60;;;;;;4927452;28;87830;-20
2021/06/28 11:24:08;;;;;;;11.57;6.85;;;24.60;78.90;;;;;;4912959;28;87634;-24
2021/06/28 11:26:35;;;;;;;16.00;7.15;;;24.60;79.90;;;;;;4910475;28;86983;-17
2021/06/28 11:29:01;;;;;;;9.82;6.70;;;24.60;80.50;;;;;;4911999;28;88258;-21
2021/06/28 11:31:29;;;;;;;8.35;6.30;;;24.50;80.80;;;;;;4912059;28;87888;-36
2021/06/28 11:34:00;;;;;;;8.95;6.00;;;24.60;81.10;;;;;;4925352;28;88974;-25
2021/06/28 11:36:40;;;;;;;8.23;6.43;;;24.60;81.30;;;;;;4929877;28;87985;-25
2021/06/28 11:39:27;;;;;;;9.15;6.22;;;24.60;81.80;;;;;;4930541;28;88110;-16
2021/06/28 11:42:22;;;;;;;11.88;6.70;;;24.60;81.40;;;;;;4930830;28;88008;-20
2021/06/28 11:44:50;;;;;;;14.27;6.22;;;24.60;81.30;;;;;;4930787;28;87691;-21
2021/06/28 11:47:16;;;;;;;10.50;7.25;;;24.60;81.10;;;;;;4929796;28;87351;-24
2021/06/28 11:49:44;;;;;;;10.07;6.50;;;24.60;81.30;;;;;;4929771;28;88354;-24
2021/06/28 11:52:16;;;;;;;9.57;6.20;;;24.60;80.90;;;;;;4913082;28;87222;-20
2021/06/28 11:54:44;;;;;;;9.65;6.28;;;24.60;80.70;;;;;;4910775;28;87671;-35
2021/06/28 11:57:10;;;;;;;8.82;5.70;;;24.60;80.60;;;;;;4909231;28;89878;-28
2021/06/28 11:59:41;;;;;;;8.10;5.97;;;24.70;80.50;;;;;;4910568;28;89847;-25
2021/06/28 12:02:08;;;;;;;9.57;6.28;;;24.70;80.10;;;;;;4913064;28;89144;-20
2021/06/28 12:04:36;;;;;;;10.52;7.00;;;24.60;79.70;;;;;;4928444;28;87071;-17
2021/06/28 12:07:04;;;;;;;10.88;6.35;;;24.70;79.40;;;;;;4911895;28;88245;-30
2021/06/28 12:09:33;;;;;;;11.13;6.85;;;24.70;78.80;;;;;;4910716;28;88204;-19
2021/06/28 12:12:12;;;;;;;9.70;6.20;;;24.70;78.60;;;;;;4913240;28;88272;-27
2021/06/28 12:14:48;;;;;;;11.13;7.22;;;24.70;78.60;;;;;;4914346;28;87930;-16
2021/06/28 12:17:23;;;;;;;10.55;7.13;;;24.70;78.50;;;;;;4913912;28;87071;-19
2021/06/28 12:19:55;;;;;;;12.90;6.65;;;24.70;78.30;;;;;;4912756;28;90984;-27
2021/06/28 12:22:23;;;;;;;9.30;6.63;;;24.70;78.00;;;;;;4913721;28;88225;-21
2021/06/28 12:24:55;;;;;;;10.60;6.35;;;24.60;78.20;;;;;;4913796;28;89086;-36
2021/06/28 12:27:29;;;;;;;12.07;7.07;;;24.60;77.30;;;;;;4921675;28;90949;-18
2021/06/28 12:29:54;;;;;;;;;;;24.70;77.30;;;;;;4921671;28;88699;-22
2021/06/28 12:32:31;;;;;;;9.38;6.25;;;24.70;77.00;;;;;;4915051;28;88218;-24
2021/06/28 12:35:06;;;;;;;12.10;7.00;;;24.60;76.90;;;;;;4915201;28;87767;-34
2021/06/28 12:37:47;;;;;;;9.95;6.75;;;24.60;76.60;;;;;;4913709;28;87575;-24
2021/06/28 12:40:30;;;;;;;9.10;6.45;;;24.70;76.40;;;;;;4912519;28;88010;-17
2021/06/28 12:42:58;;;;;;;8.73;6.55;;;24.80;76.20;;;;;;4929065;28;87373;-29
2021/06/28 12:45:28;;;;;;;11.05;5.93;;;24.80;75.70;;;;;;4933569;28;87866;-16
2021/06/28 12:47:55;;;;;;;10.52;6.78;;;24.80;75.20;;;;;;4919742;28;90451;-33
2021/06/28 12:50:24;;;;;;;8.05;5.88;;;24.80;75.10;;;;;;4913557;28;89211;-20